Metar Cercanos

 

LEPA - Palma De Mallorc, Spain
Distance from station: ONO 38km
Actualización: 21/10/2018 11:30
Parcialmente nuboso
Parcialmente nuboso
 Viento del E
Viento: E 7 km/h
Temperatura: 23°C
Rocío: 20°C
Humedad: 83%
Barómetro: 1021 hPa
Clouds: Parcialmente nuboso
Visibility: 10 km
Cloud details: Parcialmente nuboso 366 m
2018/10/21 09:30 LEPA 210930Z 08004KT 010V170 9999 SCT012 23/20 Q1021 NOSIG
LEMH - Mahon/Menorca Is, Spain
Distance from station: ENE 105km
Actualización: 21/10/2018 11:30
Parcialmente nuboso
Parcialmente nuboso
 Viento del NNE
Viento: NNE 7 km/h
Temperatura: 22°C
Rocío: 18°C
Humedad: 78%
Barómetro: 1021 hPa
Clouds: Parcialmente nuboso
Visibility: 10 km
Cloud details: Parcialmente nuboso 305 m
2018/10/21 09:30 LEMH 210930Z 03004KT 340V070 9999 SCT010 22/18 Q1021
 
LEIB - Ibiza/Es Codola, Spain
Distance from station: OSO 165km
Actualización: 21/10/2018 11:30
Muy nuboso
Muy nuboso
 Viento del ENE
Viento: ENE 19 km/h
Temperatura: 23°C
Rocío: 19°C
Humedad: 78%
Barómetro: 1021 hPa
Clouds: Muy nuboso
Visibility: 10 km
Cloud details: Parcialmente nuboso 427 m
Muy nuboso 549 m
2018/10/21 09:30 LEIB 210930Z 06010KT 030V090 9999 SCT014 BKN018 23/19 Q1021 NOSIG
LEBL - Barcelona Airpor, Spain
Distance from station: NNO 225km
Actualización: 21/10/2018 11:30
Despejado
Despejado
 Viento del NO
Viento: NO 11 km/h
Temperatura: 20°C
Rocío: 16°C
Humedad: 78%
Barómetro: 1022 hPa
Resumen: Despejado
Visibility: greater than 10 km
2018/10/21 09:30 LEBL 210930Z 32006KT 270V010 CAVOK 20/16 Q1022 NOSIG
 
LEVC - Valencia (civ/Mi, Spain
Distance from station: NO 188km
Actualización: 21/10/2018 11:30
Muy nuboso
Muy nuboso
 Viento del NE
Viento: NE 15 km/h
Temperatura: 22°C
Rocío: 15°C
Humedad: 65%
Barómetro: 1022 hPa
Clouds: Muy nuboso
Visibility: 10 km
Cloud details: Muy nuboso 1372 m
2018/10/21 09:30 LEVC 210930Z 04008KT 350V070 9999 BKN045 22/15 Q1022 NOSIG
LEGE - Gerona/Costa Bra, Spain
Distance from station: N 276km
Actualización: 21/10/2018 11:30
Despejado
Despejado
 Viento del varies
Viento: varies 4 km/h
Temperatura: 19°C
Rocío: 15°C
Humedad: 78%
Barómetro: 1022 hPa
Resumen: Despejado
Visibility: greater than 10 km
2018/10/21 09:30 LEGE 210930Z VRB02KT CAVOK 19/15 Q1022
 
LEAL - Alicante/El Alte, Spain
Distance from station: OSO 344km
Actualización: 21/10/2018 11:30
Few Clouds
Few Clouds
 Viento del ENE
Viento: ENE 30 km/h
Temperatura: 24°C
Rocío: 18°C
Humedad: 69%
Barómetro: 1021 hPa
Clouds: Few Clouds
Visibility: 10 km
Cloud details: Few Clouds 762 m
2018/10/21 09:30 LEAL 210930Z 07016KT 9999 FEW025 24/18 Q1021 NOSIG
LEAM - Almeria Airport, Spain
Distance from station: SSO 56km
Actualización: 21/10/2018 11:30
Parcialmente nuboso
Parcialmente nuboso
 Viento del NE
Viento: NE 37 km/h
Temperatura: 25°C
Rocío: 17°C
Humedad: 61%
Barómetro: 1018 hPa
Clouds: Parcialmente nuboso
Visibility: 10 km
Cloud details: Few Clouds 914 m
Few Clouds 1524 m
Parcialmente nuboso 2134 m
2018/10/21 09:30 LEAM 210930Z 05020KT 020V080 9999 FEW030 FEW050TCU SCT070 25/17 Q1018
 
LEZG - Zaragoza (mil/Ci, Spain
Distance from station: NO 431km
Actualización: 21/10/2018 11:30
Few Clouds
Few Clouds
 Viento del NO
Viento: NO 9 km/h
Temperatura: 16°C
Rocío: 14°C
Humedad: 88%
Barómetro: 1024 hPa
Clouds: Few Clouds
Visibility: 8 km
Cloud details: Few Clouds 30 m
2018/10/21 09:30 LEZG 210930Z 32005KT 280V350 8000 FEW001 16/14 Q1024
LEMD - Madrid/Barajas, Spain
Distance from station: ONO 234km
Actualización: 21/10/2018 11:30
Muy nuboso
Muy nuboso
 Viento del N
Viento: N 7 km/h
Temperatura: 17°C
Rocío: 14°C
Humedad: 83%
Barómetro: 1023 hPa
Clouds: Muy nuboso
Visibility: 10 km
Cloud details: Parcialmente nuboso 1219 m
Muy nuboso 2134 m
2018/10/21 09:30 LEMD 210930Z 35004KT 320V060 9999 SCT040 BKN070 17/14 Q1023 R88/29//95 NOSIG
 
LEGR - Granada Airport, Spain
Distance from station: OSO 62km
Actualización: 21/10/2018 11:30
Despejado
Despejado
 Viento del calm
Viento: Calma
Temperatura: 19°C
Rocío: 15°C
Humedad: 78%
Barómetro: 1019 hPa
Resumen: Despejado
Visibility: greater than 10 km
2018/10/21 09:30 LEGR 210930Z 00000KT CAVOK 19/15 Q1019
LEMG - Malaga (civ/Mil), Spain
Distance from station: OSO 227km
Actualización: 21/10/2018 11:30
Parcialmente nuboso
Parcialmente nuboso
 Viento del O
Viento: O 17 km/h
Temperatura: 22°C
Rocío: 16°C
Humedad: 69%
Barómetro: 1017 hPa
Clouds: Parcialmente nuboso
Visibility: 10 km
Cloud details: Few Clouds 549 m
Parcialmente nuboso 671 m
2018/10/21 09:30 LEMG 210930Z 27009KT 9999 FEW018 SCT022 22/16 Q1017 NOSIG
 
LEZL - Sevilla (civ/Mil, Spain
Distance from station: S 318km
Actualización: 21/10/2018 11:30
Nearby thunderstorm, Parcialmente nuboso
Nearby thunderstorm, Parcialmente nuboso
 Viento del varies
Viento: varies 4 km/h
Temperatura: 18°C
Rocío: 16°C
Humedad: 88%
Barómetro: 1019 hPa
Resumen: Nearby Thunderstorm
Clouds: Parcialmente nuboso
Visibility: 10 km
Cloud details: Few Clouds 610 m
Parcialmente nuboso 1067 m
2018/10/21 09:30 LEZL 210930Z VRB02KT 9999 VCTS FEW020 SCT035CB 18/16 Q1019 TEMPO 4000 SHRA SCT030TCU
LEVT - Vitoria, Spain
Distance from station: NO 226km
Actualización: 21/10/2018 11:30
Mist, Cubierto
Mist, Cubierto
 Viento del calm
Viento: Calma
Temperatura: 14°C
Rocío: 13°C
Humedad: 94%
Barómetro: 1025 hPa
Resumen: Mist
Clouds: Cubierto
Visibility: 5 km
Cloud details: Cubierto 305 m
2018/10/21 09:30 LEVT 210930Z 00000KT 5000 BR OVC010 14/13 Q1025
 
LEBB - Bilbao/Sondica, Spain
Distance from station: NNO 235km
Actualización: 21/10/2018 11:30
Parcialmente nuboso
Parcialmente nuboso
 Viento del SE
Viento: SE 6 km/h
Temperatura: 18°C
Rocío: 15°C
Humedad: 83%
Barómetro: 1024 hPa
Clouds: Parcialmente nuboso
Visibility: 9 km
2018/10/21 09:30 LEBB 210930Z 14003KT 090V190 9000 NSC 18/15 Q1024 NOSIG
LESO - San Sebastian/Fu, Spain
Distance from station: N 231km
Actualización: 21/10/2018 11:30
Patches of fog, Parcialmente nuboso
Patches of fog, Parcialmente nuboso
 Viento del varies
Viento: varies 4 km/h
Temperatura: 16°C
Rocío: 15°C
Humedad: 94%
Barómetro: 1024 hPa
Resumen: Patches of Fog
Clouds: Parcialmente nuboso
Visibility: 5 km
2018/10/21 09:30 LESO 210930Z VRB02KT 5000 BCFG NSC 16/15 Q1024
 
LEVD - Valladolid(Mil/C, Spain
Distance from station: ONO 239km
Actualización: 21/10/2018 11:30
Despejado
Despejado
 Viento del E
Viento: E 15 km/h
Temperatura: 16°C
Rocío: 11°C
Humedad: 72%
Barómetro: 1024 hPa
Resumen: Despejado
Visibility: greater than 10 km
2018/10/21 09:30 LEVD 210930Z 08008KT 050V110 CAVOK 16/11 Q1024
LESA - Salamanca (civ/M, Spain
Distance from station: ONO 349km
Actualización: 21/10/2018 11:30
Despejado
Despejado
 Viento del ESE
Viento: ESE 22 km/h
Temperatura: 17°C
Rocío: 12°C
Humedad: 73%
Barómetro: 1022 hPa
Resumen: Despejado
Visibility: greater than 10 km
2018/10/21 09:30 LESA 210930Z 12012KT 090V150 CAVOK 17/12 Q1022
 
LEXJ - Santander/Paraya, Spain
Distance from station: NNO 247km
Actualización: 21/10/2018 11:30
Parcialmente nuboso
Parcialmente nuboso
 Viento del ENE
Viento: ENE 2 km/h
Temperatura: 16°C
Rocío: 16°C
Humedad: 100%
Barómetro: 1023 hPa
Clouds: Parcialmente nuboso
Visibility: 6 km
2018/10/21 09:30 LEXJ 210930Z 07001KT 6000 NSC 16/16 Q1023
LEAS - Asturias/Aviles, Spain
Distance from station: NO 214km
Actualización: 21/10/2018 11:30
Mist, Few clouds
Mist, Few clouds
 Viento del varies
Viento: varies 4 km/h
Temperatura: 17°C
Rocío: 15°C
Humedad: 88%
Barómetro: 1023 hPa
Resumen: Mist
Clouds: Few Clouds
Visibility: 3 km
Cloud details: Few Clouds 366 m
2018/10/21 09:30 LEAS 210930Z VRB02KT 3000 BR FEW012 17/15 Q1023 TEMPO 6000 NSW
 
LECO - La Coruna/Alvedr, Spain
Distance from station: ONO 222km
Actualización: 21/10/2018 11:30
Nearby fog, Parcialmente nuboso
Nearby fog, Parcialmente nuboso
 Viento del varies
Viento: varies 4 km/h
Temperatura: 17°C
Rocío: 14°C
Humedad: 83%
Barómetro: 1021 hPa
Resumen: Nearby Fog
Clouds: Parcialmente nuboso
Visibility: 10 km
2018/10/21 09:30 LECO 210930Z VRB02KT 9999 VCFG NSC 17/14 Q1021 NOSIG
LEVX - Vigo/Peinador, Spain
Distance from station: O 214km
Actualización: 21/10/2018 11:30
Despejado
Despejado
 Viento del varies
Viento: varies 9 km/h, Racha: 30 km/h
Temperatura: 20°C
Rocío: 12°C
Humedad: 60%
Barómetro: 1020 hPa
Resumen: Despejado
Visibility: greater than 10 km
2018/10/21 09:30 LEVX 210930Z VRB05G16KT CAVOK 20/12 Q1020 NOSIG